createdAt,value
2022-10-31T00:01:29.543Z,17.03
2022-10-31T00:03:59.940Z,16.99
2022-10-31T00:06:28.170Z,17.01
2022-10-31T00:08:59.177Z,17.01
2022-10-31T00:11:27.170Z,17.08
2022-10-31T00:13:54.975Z,16.99
2022-10-31T00:16:25.684Z,17.02
2022-10-31T00:18:53.783Z,17.00
2022-10-31T00:21:22.550Z,16.98
2022-10-31T00:23:50.548Z,16.97
2022-10-31T00:26:18.533Z,16.91
2022-10-31T00:28:46.330Z,16.88
2022-10-31T00:31:14.658Z,16.82
2022-10-31T00:33:44.052Z,16.75
2022-10-31T00:36:14.434Z,16.77
2022-10-31T00:38:42.427Z,16.76
2022-10-31T00:41:10.217Z,16.78
2022-10-31T00:43:37.912Z,16.75
2022-10-31T00:46:05.988Z,16.74
2022-10-31T00:48:33.690Z,16.71
2022-10-31T00:51:02.750Z,16.73
2022-10-31T00:53:30.412Z,16.71
2022-10-31T00:55:58.166Z,16.69
2022-10-31T00:58:26.070Z,16.66
2022-10-31T01:00:56.193Z,16.69
2022-10-31T01:03:24.665Z,16.75
2022-10-31T01:06:00.019Z,16.63
2022-10-31T01:08:29.703Z,16.61
2022-10-31T01:11:05.572Z,16.55
2022-10-31T01:13:33.324Z,16.58
2022-10-31T01:16:01.780Z,16.58
2022-10-31T01:18:30.485Z,16.56
2022-10-31T01:21:03.124Z,16.58
2022-10-31T01:23:32.390Z,16.59
2022-10-31T01:26:18.587Z,16.58
2022-10-31T01:28:48.258Z,16.63
2022-10-31T01:31:16.262Z,16.65
2022-10-31T01:33:44.165Z,16.60
2022-10-31T01:36:18.044Z,16.56
2022-10-31T01:38:47.413Z,16.55
2022-10-31T01:41:16.800Z,16.51
2022-10-31T01:43:50.504Z,16.52
2022-10-31T01:46:21.308Z,16.55
2022-10-31T01:48:49.718Z,16.52
2022-10-31T01:51:18.567Z,16.59
2022-10-31T01:53:47.822Z,16.56
2022-10-31T01:56:17.636Z,16.54
2022-10-31T01:58:47.692Z,16.65
2022-10-31T02:01:16.936Z,16.72
2022-10-31T02:03:45.279Z,16.72
2022-10-31T02:06:23.507Z,16.52
2022-10-31T02:08:52.550Z,16.65
2022-10-31T02:11:20.203Z,16.64
2022-10-31T02:13:48.730Z,16.58
2022-10-31T02:16:16.360Z,16.65
2022-10-31T02:18:44.088Z,16.56
2022-10-31T02:21:17.579Z,16.56
2022-10-31T02:24:10.405Z,16.71
2022-10-31T02:26:51.460Z,16.78
2022-10-31T02:29:37.563Z,16.86
2022-10-31T02:32:08.723Z,16.89
2022-10-31T02:34:39.234Z,16.86
2022-10-31T02:37:12.508Z,16.85
2022-10-31T02:39:47.378Z,16.90
2022-10-31T02:42:18.749Z,16.88
2022-10-31T02:44:49.319Z,16.90
2022-10-31T02:47:20.159Z,16.82
2022-10-31T02:49:50.736Z,16.81
2022-10-31T02:52:22.533Z,16.80
2022-10-31T02:54:50.603Z,16.76
2022-10-31T02:57:21.439Z,16.76
2022-10-31T02:59:51.134Z,16.70
2022-10-31T03:02:35.313Z,16.73
2022-10-31T03:05:14.639Z,16.82
2022-10-31T03:07:46.940Z,16.81
2022-10-31T03:10:18.982Z,16.75
2022-10-31T03:12:52.736Z,16.73
2022-10-31T03:15:24.614Z,16.81
2022-10-31T03:17:57.744Z,16.71
2022-10-31T03:20:28.901Z,16.67
2022-10-31T03:22:57.184Z,16.56
2022-10-31T03:25:25.071Z,16.66
2022-10-31T03:27:53.502Z,16.70
2022-10-31T03:30:21.407Z,16.79
2022-10-31T03:32:51.886Z,16.71
2022-10-31T03:35:23.286Z,16.67
2022-10-31T03:37:51.885Z,16.78
2022-10-31T03:40:21.557Z,16.73
2022-10-31T03:42:53.951Z,16.74
2022-10-31T03:45:25.564Z,16.72
2022-10-31T03:47:53.790Z,16.88
2022-10-31T03:50:23.411Z,16.89
2022-10-31T03:52:56.059Z,16.86
2022-10-31T03:55:28.492Z,16.74
2022-10-31T03:58:00.656Z,16.72
2022-10-31T04:00:28.761Z,16.81
2022-10-31T04:03:00.839Z,16.83
2022-10-31T04:05:31.721Z,16.81
2022-10-31T04:08:00.566Z,16.80
2022-10-31T04:10:33.162Z,16.73
2022-10-31T04:13:04.574Z,16.91
2022-10-31T04:15:33.585Z,16.92
2022-10-31T04:18:02.409Z,16.83
2022-10-31T04:20:36.090Z,16.71
2022-10-31T04:23:04.276Z,16.84
2022-10-31T04:25:32.048Z,16.73
2022-10-31T04:27:59.994Z,16.76
2022-10-31T04:30:29.651Z,16.86
2022-10-31T04:32:57.612Z,16.93
2022-10-31T04:35:25.470Z,16.88
2022-10-31T04:37:54.514Z,16.83
2022-10-31T04:40:22.194Z,16.81
2022-10-31T04:42:49.875Z,16.82
2022-10-31T04:45:21.084Z,16.85
2022-10-31T04:47:49.293Z,16.81
2022-10-31T04:50:17.013Z,16.83
2022-10-31T04:52:45.551Z,16.77
2022-10-31T04:55:15.458Z,16.79
2022-10-31T04:57:43.722Z,16.87
2022-10-31T05:00:12.923Z,16.84
2022-10-31T05:02:46.783Z,16.79
2022-10-31T05:05:14.646Z,16.66
2022-10-31T05:07:43.318Z,16.72
2022-10-31T05:10:11.840Z,16.80
2022-10-31T05:12:47.700Z,16.74
2022-10-31T05:15:15.810Z,16.72
2022-10-31T05:17:43.880Z,16.73
2022-10-31T05:20:12.048Z,16.79
2022-10-31T05:22:44.032Z,16.67
2022-10-31T05:25:11.876Z,16.64
2022-10-31T05:27:42.291Z,16.66
2022-10-31T05:30:11.720Z,16.69
2022-10-31T05:32:40.437Z,16.82
2022-10-31T05:35:09.971Z,16.79
2022-10-31T05:37:37.696Z,16.80
2022-10-31T05:40:10.824Z,16.76
2022-10-31T05:42:40.366Z,16.71
2022-10-31T05:45:10.792Z,16.66
2022-10-31T05:47:38.598Z,16.76
2022-10-31T05:50:08.246Z,16.77
2022-10-31T05:52:36.117Z,16.82
2022-10-31T05:55:04.933Z,16.79
2022-10-31T05:57:34.167Z,16.77
2022-10-31T06:00:04.419Z,16.76
2022-10-31T06:02:35.314Z,16.71
2022-10-31T06:05:04.760Z,16.81
2022-10-31T06:07:34.699Z,16.85
2022-10-31T06:10:05.078Z,16.81
2022-10-31T06:12:33.083Z,16.83
2022-10-31T06:15:00.724Z,16.88
2022-10-31T06:17:28.402Z,16.89
2022-10-31T06:20:00.699Z,16.79
2022-10-31T06:22:28.412Z,16.80
2022-10-31T06:24:56.106Z,16.80
2022-10-31T06:27:23.788Z,16.74
2022-10-31T06:29:51.707Z,16.82
2022-10-31T06:32:19.997Z,16.83
2022-10-31T06:34:48.964Z,16.74
2022-10-31T06:37:18.001Z,16.75
2022-10-31T06:39:45.715Z,16.75
2022-10-31T06:42:15.251Z,16.81
2022-10-31T06:44:42.922Z,16.82
2022-10-31T06:47:10.602Z,16.75
2022-10-31T06:49:38.870Z,16.73
2022-10-31T06:52:06.999Z,16.75
2022-10-31T06:54:36.033Z,16.80
2022-10-31T06:57:05.079Z,16.78
2022-10-31T06:59:32.771Z,16.80
2022-10-31T07:02:00.706Z,16.80
2022-10-31T07:04:29.695Z,16.73
2022-10-31T07:06:57.363Z,16.81
2022-10-31T07:09:25.079Z,16.63
2022-10-31T07:11:55.372Z,16.80
2022-10-31T07:14:23.040Z,16.68
2022-10-31T07:16:51.157Z,16.71
2022-10-31T07:19:18.996Z,16.64
2022-10-31T07:21:46.664Z,16.59
2022-10-31T07:24:14.347Z,16.67
2022-10-31T07:26:43.191Z,16.67
2022-10-31T07:29:12.209Z,16.74
2022-10-31T07:31:39.914Z,16.64
2022-10-31T07:34:07.571Z,16.67
2022-10-31T07:36:35.249Z,16.72
2022-10-31T07:39:05.545Z,16.51
2022-10-31T07:41:33.287Z,16.59
2022-10-31T07:44:00.999Z,16.64
2022-10-31T07:46:30.991Z,16.60
2022-10-31T07:48:58.655Z,16.69
2022-10-31T07:51:26.348Z,16.70
2022-10-31T07:53:54.078Z,16.59
2022-10-31T07:56:21.730Z,16.74
2022-10-31T07:58:49.395Z,16.75
2022-10-31T08:01:17.165Z,16.66
2022-10-31T08:03:46.392Z,16.76
2022-10-31T08:06:14.051Z,16.65
2022-10-31T08:08:41.689Z,16.58
2022-10-31T08:11:09.341Z,16.64
2022-10-31T08:13:37.586Z,16.73
2022-10-31T08:16:08.267Z,16.78
2022-10-31T08:18:38.315Z,16.73
2022-10-31T08:21:07.394Z,16.76
2022-10-31T08:23:35.054Z,16.72
2022-10-31T08:26:06.919Z,16.72
2022-10-31T08:28:34.619Z,16.70
2022-10-31T08:31:02.290Z,16.72
2022-10-31T08:33:31.079Z,16.65
2022-10-31T08:35:59.637Z,16.67
2022-10-31T08:38:28.638Z,16.76
2022-10-31T08:40:56.341Z,16.76
2022-10-31T08:43:23.995Z,16.80
2022-10-31T08:45:51.845Z,16.69
2022-10-31T08:48:19.754Z,16.66
2022-10-31T08:50:48.659Z,16.73
2022-10-31T08:53:17.867Z,16.76
2022-10-31T08:55:48.301Z,16.75
2022-10-31T08:58:20.591Z,16.80
2022-10-31T09:00:55.252Z,16.71
2022-10-31T09:03:25.178Z,16.76
2022-10-31T09:05:58.042Z,16.76
2022-10-31T09:08:29.737Z,16.82
2022-10-31T09:11:00.191Z,16.80
2022-10-31T09:13:34.618Z,16.85
2022-10-31T09:16:06.382Z,16.80
2022-10-31T09:18:34.468Z,16.79
2022-10-31T09:21:02.770Z,16.83
2022-10-31T09:23:30.530Z,16.82
2022-10-31T09:26:03.170Z,16.87
2022-10-31T09:28:31.031Z,16.85
2022-10-31T09:30:58.711Z,16.83
2022-10-31T09:33:26.405Z,16.83
2022-10-31T09:35:54.297Z,16.79
2022-10-31T09:38:24.207Z,16.82
2022-10-31T09:40:56.776Z,16.83
2022-10-31T09:43:30.399Z,16.84
2022-10-31T09:46:04.543Z,16.84
2022-10-31T09:48:56.089Z,16.83
2022-10-31T09:51:31.185Z,16.87
2022-10-31T09:54:05.235Z,16.97
2022-10-31T09:56:33.515Z,16.90
2022-10-31T09:59:04.169Z,16.88
2022-10-31T10:01:41.474Z,16.93
2022-10-31T10:04:21.318Z,16.97
2022-10-31T10:06:51.787Z,16.82
2022-10-31T10:11:57.270Z,16.86
2022-10-31T10:14:39.938Z,16.85
2022-10-31T10:17:16.328Z,16.78
2022-10-31T10:20:00.573Z,16.82
2022-10-31T10:22:36.218Z,16.83
2022-10-31T10:25:15.969Z,16.81
2022-10-31T10:27:50.147Z,16.88
2022-10-31T10:30:21.188Z,16.93
2022-10-31T10:32:52.193Z,16.89
2022-10-31T10:35:24.515Z,16.95
2022-10-31T10:37:55.214Z,16.93
2022-10-31T10:40:25.874Z,16.96
2022-10-31T10:43:16.302Z,16.94
2022-10-31T10:46:07.784Z,16.90
2022-10-31T10:48:45.130Z,16.94
2022-10-31T10:51:31.947Z,16.91
2022-10-31T10:54:22.756Z,16.97
2022-10-31T10:56:58.855Z,16.90
2022-10-31T10:59:27.288Z,17.01
2022-10-31T11:01:56.526Z,16.98
2022-10-31T11:04:29.348Z,17.01
2022-10-31T11:07:04.468Z,17.03
2022-10-31T11:09:32.359Z,17.02
2022-10-31T11:12:00.338Z,17.00
2022-10-31T11:14:30.246Z,17.05
2022-10-31T11:17:11.955Z,17.09
2022-10-31T11:19:39.658Z,17.06
2022-10-31T11:22:08.646Z,17.08
2022-10-31T11:24:40.224Z,17.16
2022-10-31T11:27:15.647Z,17.09
2022-10-31T11:29:43.457Z,17.09
2022-10-31T11:32:20.136Z,17.11
2022-10-31T11:34:50.199Z,17.15
2022-10-31T11:37:20.137Z,17.08
2022-10-31T11:39:54.077Z,17.08
2022-10-31T11:42:24.031Z,17.13
2022-10-31T11:44:52.347Z,17.18
2022-10-31T11:47:27.307Z,17.21
2022-10-31T11:49:55.257Z,17.19
2022-10-31T11:52:25.395Z,17.17
2022-10-31T11:54:59.497Z,17.22
2022-10-31T11:57:29.276Z,17.15
2022-10-31T11:59:59.391Z,17.20
2022-10-31T12:02:28.931Z,17.14
2022-10-31T12:05:04.547Z,17.20
2022-10-31T12:07:32.415Z,17.24
2022-10-31T12:10:00.122Z,17.27
2022-10-31T12:12:47.836Z,17.24
2022-10-31T12:15:29.802Z,17.23
2022-10-31T12:18:29.096Z,17.24
2022-10-31T12:21:13.861Z,17.29
2022-10-31T12:23:51.164Z,17.27
2022-10-31T12:26:22.862Z,17.26
2022-10-31T12:29:03.124Z,17.33
2022-10-31T12:31:42.954Z,17.31
2022-10-31T12:34:55.528Z,17.34
2022-10-31T12:37:37.842Z,17.35
2022-10-31T12:40:21.338Z,17.36
2022-10-31T12:43:00.759Z,17.25
2022-10-31T12:45:51.003Z,17.19
2022-10-31T12:48:33.791Z,17.18
2022-10-31T12:51:07.163Z,17.19
2022-10-31T12:53:46.425Z,17.17
2022-10-31T12:56:26.498Z,17.13
2022-10-31T12:58:58.748Z,17.12
2022-10-31T13:01:30.409Z,17.06
2022-10-31T13:04:02.998Z,17.17
2022-10-31T13:06:34.329Z,17.21
2022-10-31T13:09:06.134Z,17.19
2022-10-31T13:11:37.227Z,17.31
2022-10-31T13:14:07.803Z,17.26
2022-10-31T13:16:38.695Z,17.31
2022-10-31T13:19:12.650Z,17.26
2022-10-31T13:21:44.423Z,17.35
2022-10-31T13:24:18.499Z,17.34
2022-10-31T13:26:49.871Z,17.42
2022-10-31T13:29:24.786Z,17.39
2022-10-31T13:31:54.762Z,17.38
2022-10-31T13:34:27.354Z,17.34
2022-10-31T13:37:04.529Z,17.36
2022-10-31T13:39:43.968Z,17.35
2022-10-31T13:42:16.410Z,17.30
2022-10-31T13:44:44.044Z,17.26
2022-10-31T13:47:24.378Z,17.19
2022-10-31T13:49:52.528Z,17.31
2022-10-31T13:52:26.131Z,17.17
2022-10-31T13:54:57.680Z,17.32
2022-10-31T13:57:34.561Z,17.28
2022-10-31T14:00:09.114Z,17.23
2022-10-31T14:02:38.146Z,17.15
2022-10-31T14:05:26.858Z,17.29
2022-10-31T14:07:54.983Z,17.20
2022-10-31T14:10:27.552Z,17.12
2022-10-31T14:12:56.859Z,17.07
2022-10-31T14:15:26.332Z,17.07
2022-10-31T14:17:57.175Z,16.97
2022-10-31T14:20:34.328Z,17.03
2022-10-31T14:23:13.264Z,17.07
2022-10-31T14:25:42.481Z,16.87
2022-10-31T14:28:23.994Z,16.95
2022-10-31T14:30:55.875Z,17.11
2022-10-31T14:33:25.362Z,17.24
2022-10-31T14:35:56.085Z,17.18
2022-10-31T14:38:34.578Z,17.14
2022-10-31T14:41:24.662Z,17.14
2022-10-31T14:44:28.526Z,17.15
2022-10-31T14:47:03.542Z,17.07
2022-10-31T14:49:46.302Z,17.18
2022-10-31T14:52:16.164Z,17.29
2022-10-31T14:54:47.239Z,16.95
2022-10-31T14:57:20.848Z,17.10
2022-10-31T14:59:51.031Z,17.17
2022-10-31T15:02:23.468Z,17.27
2022-10-31T15:04:53.440Z,17.29
2022-10-31T15:07:24.850Z,17.09
2022-10-31T15:10:00.088Z,17.12
2022-10-31T15:12:30.257Z,17.05
2022-10-31T15:14:59.314Z,17.12
2022-10-31T15:17:28.227Z,17.20
2022-10-31T15:19:57.417Z,17.18
2022-10-31T15:22:25.967Z,17.22
2022-10-31T15:24:57.091Z,17.25
2022-10-31T15:27:25.818Z,17.26
2022-10-31T15:29:56.300Z,17.11
2022-10-31T15:32:27.787Z,17.07
2022-10-31T15:34:57.444Z,17.16
2022-10-31T15:37:27.185Z,17.11
2022-10-31T15:39:54.849Z,17.29
2022-10-31T15:42:24.526Z,17.32
2022-10-31T15:44:57.283Z,17.16
2022-10-31T15:47:25.699Z,17.21
2022-10-31T15:49:54.801Z,17.19
2022-10-31T15:52:29.319Z,17.08
2022-10-31T15:54:59.959Z,17.02
2022-10-31T15:57:28.020Z,17.18
2022-10-31T15:59:57.088Z,17.03
2022-10-31T16:02:26.239Z,16.82
2022-10-31T16:04:57.166Z,16.93
2022-10-31T16:07:25.100Z,17.03
2022-10-31T16:09:57.796Z,17.07
2022-10-31T16:12:27.039Z,17.06
2022-10-31T16:14:57.541Z,17.02
2022-10-31T16:17:28.669Z,17.01
2022-10-31T16:19:59.014Z,16.86
2022-10-31T16:22:29.033Z,16.79
2022-10-31T16:25:01.542Z,16.86
2022-10-31T16:27:33.027Z,16.75
2022-10-31T16:30:05.203Z,16.71
2022-10-31T16:32:35.834Z,16.82
2022-10-31T16:35:26.991Z,16.70
2022-10-31T16:37:55.259Z,16.79
2022-10-31T16:40:22.998Z,16.74
2022-10-31T16:42:50.779Z,16.76
2022-10-31T16:45:21.856Z,16.86
2022-10-31T16:47:50.191Z,16.97
2022-10-31T16:50:19.634Z,16.99
2022-10-31T16:55:36.404Z,16.93
2022-10-31T16:58:05.349Z,16.78
2022-10-31T17:00:34.328Z,16.78
2022-10-31T17:03:03.000Z,16.57
2022-10-31T17:05:32.785Z,16.66
2022-10-31T17:08:00.812Z,16.51
2022-10-31T17:10:30.159Z,16.63
2022-10-31T17:12:59.901Z,16.52
2022-10-31T17:15:28.717Z,16.36
2022-10-31T17:17:58.625Z,16.29
2022-10-31T17:20:28.206Z,16.43
2022-10-31T17:22:56.462Z,16.46
2022-10-31T17:25:25.402Z,16.40
2022-10-31T17:27:53.238Z,16.48
2022-10-31T17:30:22.286Z,16.46
2022-10-31T17:32:51.010Z,16.21
2022-10-31T17:35:20.479Z,16.22
2022-10-31T17:37:48.987Z,16.30
2022-10-31T17:40:18.778Z,16.19
2022-10-31T17:42:50.346Z,15.97
2022-10-31T17:45:18.495Z,15.82
2022-10-31T17:47:48.280Z,15.93
2022-10-31T17:50:16.119Z,16.06
2022-10-31T17:52:45.165Z,15.98
2022-10-31T17:55:13.385Z,16.00
2022-10-31T17:57:41.136Z,16.13
2022-10-31T18:00:12.903Z,16.09
2022-10-31T18:02:40.679Z,16.08
2022-10-31T18:05:08.952Z,16.04
2022-10-31T18:07:36.952Z,16.24
2022-10-31T18:10:07.199Z,16.20
2022-10-31T18:12:36.425Z,16.07
2022-10-31T18:15:05.058Z,16.13
2022-10-31T18:17:33.050Z,16.13
2022-10-31T18:20:04.021Z,16.09
2022-10-31T18:22:31.685Z,16.00
2022-10-31T18:25:02.107Z,15.92
2022-10-31T18:27:31.607Z,16.06
2022-10-31T18:29:59.260Z,15.97
2022-10-31T18:32:26.951Z,16.10
2022-10-31T18:34:54.704Z,16.16
2022-10-31T18:37:22.359Z,16.26
2022-10-31T18:39:50.134Z,16.31
2022-10-31T18:42:17.795Z,16.26
2022-10-31T18:44:46.787Z,16.24
2022-10-31T18:47:14.550Z,16.18
2022-10-31T18:49:42.463Z,16.00
2022-10-31T18:52:10.163Z,15.89
2022-10-31T18:54:38.009Z,15.90
2022-10-31T18:57:07.814Z,15.78
2022-10-31T18:59:35.483Z,15.84
2022-10-31T19:02:04.641Z,15.51
2022-10-31T19:04:32.476Z,15.82
2022-10-31T19:07:00.398Z,15.47
2022-10-31T19:09:31.654Z,15.36
2022-10-31T19:11:59.299Z,15.35
2022-10-31T19:14:26.970Z,15.38
2022-10-31T19:16:57.116Z,15.49
2022-10-31T19:19:28.710Z,15.46
2022-10-31T19:21:56.907Z,15.50
2022-10-31T19:24:25.086Z,15.26
2022-10-31T19:26:52.749Z,15.35
2022-10-31T19:29:20.411Z,15.31
2022-10-31T19:31:48.379Z,15.43
2022-10-31T19:34:16.086Z,15.56
2022-10-31T19:36:45.430Z,15.29
2022-10-31T19:39:13.350Z,15.43
2022-10-31T19:41:41.050Z,15.78
2022-10-31T19:44:11.808Z,15.87
2022-10-31T19:46:53.338Z,15.56
2022-10-31T19:49:21.618Z,15.65
2022-10-31T19:51:50.694Z,15.90
2022-10-31T19:54:18.509Z,15.91
2022-10-31T19:56:46.639Z,16.05
2022-10-31T19:59:14.327Z,16.00
2022-10-31T20:01:42.084Z,15.92
2022-10-31T20:04:09.862Z,15.99
2022-10-31T20:06:39.254Z,15.87
2022-10-31T20:09:10.825Z,15.67
2022-10-31T20:11:39.015Z,15.79
2022-10-31T20:14:07.836Z,16.10
2022-10-31T20:16:35.604Z,15.91
2022-10-31T20:19:05.732Z,15.98
2022-10-31T20:21:37.514Z,15.92
2022-10-31T20:24:07.244Z,15.92
2022-10-31T20:26:36.932Z,15.89
2022-10-31T20:29:04.681Z,15.82
2022-10-31T20:31:35.875Z,15.96
2022-10-31T20:34:05.079Z,15.77
2022-10-31T20:36:32.729Z,15.80
2022-10-31T20:39:02.991Z,15.89
2022-10-31T20:41:39.267Z,16.02
2022-10-31T20:44:06.995Z,15.92
2022-10-31T20:46:34.640Z,15.95
2022-10-31T20:49:03.019Z,15.90
2022-10-31T20:51:31.548Z,16.02
2022-10-31T20:54:00.106Z,16.03
2022-10-31T20:56:30.363Z,16.13
2022-10-31T20:58:59.565Z,15.88
2022-10-31T21:01:29.043Z,15.95
2022-10-31T21:03:58.177Z,15.96
2022-10-31T21:06:26.275Z,15.95
2022-10-31T21:08:54.655Z,15.94
2022-10-31T21:11:24.591Z,16.04
2022-10-31T21:13:52.644Z,15.88
2022-10-31T21:16:23.495Z,15.82
2022-10-31T21:18:51.664Z,15.77
2022-10-31T21:21:21.096Z,15.72
2022-10-31T21:23:48.900Z,15.65
2022-10-31T21:26:19.036Z,15.55
2022-10-31T21:28:46.713Z,15.68
2022-10-31T21:31:15.858Z,15.48
2022-10-31T21:33:45.873Z,15.45
2022-10-31T21:36:14.274Z,15.46
2022-10-31T21:38:44.702Z,15.44
2022-10-31T21:41:13.726Z,15.47
2022-10-31T21:43:43.306Z,15.28
2022-10-31T21:46:13.015Z,15.52
2022-10-31T21:48:42.170Z,15.30
2022-10-31T21:51:12.776Z,15.47
2022-10-31T21:53:58.535Z,15.56
2022-10-31T21:56:26.612Z,15.71
2022-10-31T21:58:54.365Z,15.46
2022-10-31T22:01:23.425Z,15.45
2022-10-31T22:03:51.836Z,15.49
2022-10-31T22:06:22.915Z,15.40
2022-10-31T22:08:51.554Z,15.16
2022-10-31T22:11:20.592Z,15.33
2022-10-31T22:13:50.332Z,15.26
2022-10-31T22:16:19.606Z,15.36
2022-10-31T22:18:47.756Z,15.30
2022-10-31T22:21:17.323Z,15.21
2022-10-31T22:23:50.866Z,15.32
2022-10-31T22:26:18.803Z,15.34
2022-10-31T22:28:47.546Z,15.29
2022-10-31T22:31:18.758Z,15.29
2022-10-31T22:33:47.048Z,15.34
2022-10-31T22:36:16.794Z,15.15
2022-10-31T22:38:46.516Z,15.16
2022-10-31T22:41:17.135Z,15.21
2022-10-31T22:43:44.848Z,14.97
2022-10-31T22:46:15.252Z,15.14
2022-10-31T22:48:44.834Z,15.14
2022-10-31T22:51:14.317Z,15.25
2022-10-31T22:53:42.190Z,14.94
2022-10-31T22:56:13.488Z,15.09
2022-10-31T22:58:41.551Z,15.35
2022-10-31T23:01:09.946Z,15.24
2022-10-31T23:03:37.879Z,15.38
2022-10-31T23:06:07.378Z,15.23
2022-10-31T23:08:36.874Z,15.17
2022-10-31T23:11:05.038Z,15.06
2022-10-31T23:13:51.507Z,15.16
2022-10-31T23:16:19.180Z,15.20
2022-10-31T23:18:50.637Z,15.09
2022-10-31T23:24:12.680Z,14.84
2022-10-31T23:26:58.381Z,15.08
2022-10-31T23:29:27.302Z,15.08
2022-10-31T23:31:55.332Z,14.94
2022-10-31T23:34:23.302Z,15.10
2022-10-31T23:36:51.032Z,14.98
2022-10-31T23:39:24.144Z,15.17
2022-10-31T23:41:53.089Z,15.28
2022-10-31T23:44:20.839Z,15.40
2022-10-31T23:46:48.816Z,15.32
2022-10-31T23:49:16.522Z,15.20
2022-10-31T23:51:44.228Z,15.35
2022-10-31T23:54:12.079Z,15.18
2022-10-31T23:56:41.148Z,15.14
2022-10-31T23:59:08.945Z,15.17
